sensor_id;sensor_type;location;lat;lon;timestamp;temperature;humidity
67050;DHT22;53955;52.442;13.284;2023-05-31T00:00:17;19.80;23.30
67050;DHT22;53955;52.442;13.284;2023-05-31T00:02:44;19.70;22.60
67050;DHT22;53955;52.442;13.284;2023-05-31T00:05:10;19.70;23.00
67050;DHT22;53955;52.442;13.284;2023-05-31T00:07:37;19.70;22.90
67050;DHT22;53955;52.442;13.284;2023-05-31T00:10:04;19.60;23.00
67050;DHT22;53955;52.442;13.284;2023-05-31T00:12:32;19.60;23.00
67050;DHT22;53955;52.442;13.284;2023-05-31T00:14:58;19.60;23.40
67050;DHT22;53955;52.442;13.284;2023-05-31T00:17:25;19.70;23.30
67050;DHT22;53955;52.442;13.284;2023-05-31T00:19:51;19.60;23.70
67050;DHT22;53955;52.442;13.284;2023-05-31T00:22:18;19.50;23.00
67050;DHT22;53955;52.442;13.284;2023-05-31T00:24:45;19.50;23.30
67050;DHT22;53955;52.442;13.284;2023-05-31T00:27:11;19.50;23.50
67050;DHT22;53955;52.442;13.284;2023-05-31T00:29:39;19.40;23.80
67050;DHT22;53955;52.442;13.284;2023-05-31T00:32:06;19.30;23.90
67050;DHT22;53955;52.442;13.284;2023-05-31T00:34:33;19.40;23.60
67050;DHT22;53955;52.442;13.284;2023-05-31T00:37:00;19.20;25.00
67050;DHT22;53955;52.442;13.284;2023-05-31T00:39:26;19.20;24.30
67050;DHT22;53955;52.442;13.284;2023-05-31T00:41:53;19.20;24.90
67050;DHT22;53955;52.442;13.284;2023-05-31T00:44:20;19.20;24.50
67050;DHT22;53955;52.442;13.284;2023-05-31T00:46:48;19.10;24.60
67050;DHT22;53955;52.442;13.284;2023-05-31T00:49:15;19.10;25.00
67050;DHT22;53955;52.442;13.284;2023-05-31T00:51:42;19.10;24.80
67050;DHT22;53955;52.442;13.284;2023-05-31T00:54:08;19.10;24.70
67050;DHT22;53955;52.442;13.284;2023-05-31T00:56:35;19.00;25.40
67050;DHT22;53955;52.442;13.284;2023-05-31T00:59:02;18.90;25.30
67050;DHT22;53955;52.442;13.284;2023-05-31T01:01:29;18.90;25.70
67050;DHT22;53955;52.442;13.284;2023-05-31T01:03:59;18.90;25.40
67050;DHT22;53955;52.442;13.284;2023-05-31T01:06:27;18.90;25.50
67050;DHT22;53955;52.442;13.284;2023-05-31T01:08:58;18.90;26.30
67050;DHT22;53955;52.442;13.284;2023-05-31T01:11:30;18.70;26.20
67050;DHT22;53955;52.442;13.284;2023-05-31T01:14:18;18.70;26.00
67050;DHT22;53955;52.442;13.284;2023-05-31T01:16:50;18.70;26.50
67050;DHT22;53955;52.442;13.284;2023-05-31T01:19:26;18.60;26.30
67050;DHT22;53955;52.442;13.284;2023-05-31T01:22:05;18.50;26.70
67050;DHT22;53955;52.442;13.284;2023-05-31T01:24:45;18.50;26.90
67050;DHT22;53955;52.442;13.284;2023-05-31T01:27:19;18.40;26.70
67050;DHT22;53955;52.442;13.284;2023-05-31T01:29:46;18.40;26.80
67050;DHT22;53955;52.442;13.284;2023-05-31T01:32:14;18.40;27.10
67050;DHT22;53955;52.442;13.284;2023-05-31T01:34:44;18.30;26.90
67050;DHT22;53955;52.442;13.284;2023-05-31T01:37:10;18.30;27.70
67050;DHT22;53955;52.442;13.284;2023-05-31T01:39:37;18.30;27.10
67050;DHT22;53955;52.442;13.284;2023-05-31T01:42:04;18.30;27.90
67050;DHT22;53955;52.442;13.284;2023-05-31T01:44:33;18.20;27.60
67050;DHT22;53955;52.442;13.284;2023-05-31T01:47:01;18.20;27.80
67050;DHT22;53955;52.442;13.284;2023-05-31T01:49:28;18.10;29.70
67050;DHT22;53955;52.442;13.284;2023-05-31T01:51:55;18.20;27.80
67050;DHT22;53955;52.442;13.284;2023-05-31T01:54:23;18.20;28.40
67050;DHT22;53955;52.442;13.284;2023-05-31T01:56:50;18.20;28.70
67050;DHT22;53955;52.442;13.284;2023-05-31T01:59:17;18.10;30.40
67050;DHT22;53955;52.442;13.284;2023-05-31T02:01:46;18.10;30.50
67050;DHT22;53955;52.442;13.284;2023-05-31T02:04:17;18.10;30.70
67050;DHT22;53955;52.442;13.284;2023-05-31T02:06:44;17.80;31.50
67050;DHT22;53955;52.442;13.284;2023-05-31T02:09:10;17.90;31.80
67050;DHT22;53955;52.442;13.284;2023-05-31T02:11:37;17.90;31.60
67050;DHT22;53955;52.442;13.284;2023-05-31T02:14:03;17.70;32.30
67050;DHT22;53955;52.442;13.284;2023-05-31T02:16:29;17.60;32.40
67050;DHT22;53955;52.442;13.284;2023-05-31T02:18:57;17.40;32.40
67050;DHT22;53955;52.442;13.284;2023-05-31T02:21:24;17.40;32.60
67050;DHT22;53955;52.442;13.284;2023-05-31T02:23:50;17.40;33.20
67050;DHT22;53955;52.442;13.284;2023-05-31T02:26:17;17.30;33.00
67050;DHT22;53955;52.442;13.284;2023-05-31T02:28:44;17.30;33.30
67050;DHT22;53955;52.442;13.284;2023-05-31T02:31:10;17.30;33.20
67050;DHT22;53955;52.442;13.284;2023-05-31T02:33:37;17.20;33.30
67050;DHT22;53955;52.442;13.284;2023-05-31T02:36:05;17.20;33.60
67050;DHT22;53955;52.442;13.284;2023-05-31T02:38:32;17.00;33.80
67050;DHT22;53955;52.442;13.284;2023-05-31T02:40:58;17.00;34.20
67050;DHT22;53955;52.442;13.284;2023-05-31T02:43:25;16.90;34.00
67050;DHT22;53955;52.442;13.284;2023-05-31T02:45:51;17.00;34.00
67050;DHT22;53955;52.442;13.284;2023-05-31T02:48:18;17.00;34.50
67050;DHT22;53955;52.442;13.284;2023-05-31T02:50:45;17.00;34.30
67050;DHT22;53955;52.442;13.284;2023-05-31T02:53:13;17.00;34.30
67050;DHT22;53955;52.442;13.284;2023-05-31T02:55:40;17.00;34.80
67050;DHT22;53955;52.442;13.284;2023-05-31T02:58:06;17.10;35.20
67050;DHT22;53955;52.442;13.284;2023-05-31T03:00:33;17.10;34.50
67050;DHT22;53955;52.442;13.284;2023-05-31T03:03:00;17.00;34.50
67050;DHT22;53955;52.442;13.284;2023-05-31T03:05:26;17.10;35.00
67050;DHT22;53955;52.442;13.284;2023-05-31T03:07:54;17.00;34.70
67050;DHT22;53955;52.442;13.284;2023-05-31T03:10:22;17.00;34.40
67050;DHT22;53955;52.442;13.284;2023-05-31T03:12:49;18.20;32.70
67050;DHT22;53955;52.442;13.284;2023-05-31T03:15:15;18.60;30.10
67050;DHT22;53955;52.442;13.284;2023-05-31T03:17:42;18.30;30.60
67050;DHT22;53955;52.442;13.284;2023-05-31T03:20:09;18.00;32.70
67050;DHT22;53955;52.442;13.284;2023-05-31T03:22:35;17.80;33.50
67050;DHT22;53955;52.442;13.284;2023-05-31T03:25:02;17.50;33.70
67050;DHT22;53955;52.442;13.284;2023-05-31T03:27:31;17.30;33.70
67050;DHT22;53955;52.442;13.284;2023-05-31T03:29:58;17.30;34.20
67050;DHT22;53955;52.442;13.284;2023-05-31T03:32:25;17.30;34.20
67050;DHT22;53955;52.442;13.284;2023-05-31T03:34:51;17.20;34.70
67050;DHT22;53955;52.442;13.284;2023-05-31T03:37:18;17.20;34.80
67050;DHT22;53955;52.442;13.284;2023-05-31T03:39:44;17.20;34.90
67050;DHT22;53955;52.442;13.284;2023-05-31T03:42:11;17.30;35.00
67050;DHT22;53955;52.442;13.284;2023-05-31T03:44:39;17.40;34.80
67050;DHT22;53955;52.442;13.284;2023-05-31T03:47:06;17.30;35.00
67050;DHT22;53955;52.442;13.284;2023-05-31T03:49:33;17.20;34.80
67050;DHT22;53955;52.442;13.284;2023-05-31T03:51:59;16.90;35.20
67050;DHT22;53955;52.442;13.284;2023-05-31T03:54:26;16.90;35.60
67050;DHT22;53955;52.442;13.284;2023-05-31T03:56:53;16.90;35.70
67050;DHT22;53955;52.442;13.284;2023-05-31T03:59:19;16.80;36.40
67050;DHT22;53955;52.442;13.284;2023-05-31T04:01:47;16.80;36.10
67050;DHT22;53955;52.442;13.284;2023-05-31T04:04:14;16.80;36.30
67050;DHT22;53955;52.442;13.284;2023-05-31T04:06:40;16.90;36.20
67050;DHT22;53955;52.442;13.284;2023-05-31T04:09:07;17.00;36.30
67050;DHT22;53955;52.442;13.284;2023-05-31T04:11:33;17.00;36.50
67050;DHT22;53955;52.442;13.284;2023-05-31T04:14:00;17.10;36.30
67050;DHT22;53955;52.442;13.284;2023-05-31T04:16:26;17.20;35.90
67050;DHT22;53955;52.442;13.284;2023-05-31T04:18:54;17.30;35.50
67050;DHT22;53955;52.442;13.284;2023-05-31T04:21:21;17.40;35.20
67050;DHT22;53955;52.442;13.284;2023-05-31T04:23:48;17.30;35.40
67050;DHT22;53955;52.442;13.284;2023-05-31T04:26:14;17.70;34.40
67050;DHT22;53955;52.442;13.284;2023-05-31T04:28:43;17.90;34.30
67050;DHT22;53955;52.442;13.284;2023-05-31T04:31:09;18.00;34.10
67050;DHT22;53955;52.442;13.284;2023-05-31T04:33:36;18.30;31.70
67050;DHT22;53955;52.442;13.284;2023-05-31T04:36:05;18.60;31.00
67050;DHT22;53955;52.442;13.284;2023-05-31T04:38:33;18.70;30.40
67050;DHT22;53955;52.442;13.284;2023-05-31T04:41:00;19.20;29.70
67050;DHT22;53955;52.442;13.284;2023-05-31T04:43:26;19.50;28.30
67050;DHT22;53955;52.442;13.284;2023-05-31T04:45:53;20.00;27.00
67050;DHT22;53955;52.442;13.284;2023-05-31T04:48:20;21.30;24.10
67050;DHT22;53955;52.442;13.284;2023-05-31T04:50:47;23.60;19.40
67050;DHT22;53955;52.442;13.284;2023-05-31T04:53:16;25.60;16.20
67050;DHT22;53955;52.442;13.284;2023-05-31T04:55:42;27.30;13.40
67050;DHT22;53955;52.442;13.284;2023-05-31T04:58:09;28.20;13.10
67050;DHT22;53955;52.442;13.284;2023-05-31T05:00:35;29.00;11.30
67050;DHT22;53955;52.442;13.284;2023-05-31T05:03:02;29.70;10.60
67050;DHT22;53955;52.442;13.284;2023-05-31T05:05:29;30.70;9.50
67050;DHT22;53955;52.442;13.284;2023-05-31T05:07:56;31.60;9.10
67050;DHT22;53955;52.442;13.284;2023-05-31T05:10:24;31.70;8.20
67050;DHT22;53955;52.442;13.284;2023-05-31T05:12:51;31.90;8.10
67050;DHT22;53955;52.442;13.284;2023-05-31T05:15:17;32.20;8.60
67050;DHT22;53955;52.442;13.284;2023-05-31T05:17:44;32.70;7.80
67050;DHT22;53955;52.442;13.284;2023-05-31T05:20:11;32.60;7.90
67050;DHT22;53955;52.442;13.284;2023-05-31T05:22:38;33.10;7.40
67050;DHT22;53955;52.442;13.284;2023-05-31T05:25:06;33.50;7.10
67050;DHT22;53955;52.442;13.284;2023-05-31T05:27:34;33.50;6.80
67050;DHT22;53955;52.442;13.284;2023-05-31T05:30:00;33.70;6.40
67050;DHT22;53955;52.442;13.284;2023-05-31T05:32:28;33.70;6.80
67050;DHT22;53955;52.442;13.284;2023-05-31T05:34:55;34.30;5.90
67050;DHT22;53955;52.442;13.284;2023-05-31T05:37:21;34.30;6.20
67050;DHT22;53955;52.442;13.284;2023-05-31T05:39:48;34.30;5.90
67050;DHT22;53955;52.442;13.284;2023-05-31T05:42:14;34.60;6.90
67050;DHT22;53955;52.442;13.284;2023-05-31T05:44:42;34.60;6.00
67050;DHT22;53955;52.442;13.284;2023-05-31T05:47:09;34.80;6.20
67050;DHT22;53955;52.442;13.284;2023-05-31T05:49:35;34.60;5.20
67050;DHT22;53955;52.442;13.284;2023-05-31T05:52:02;34.80;5.20
67050;DHT22;53955;52.442;13.284;2023-05-31T05:54:29;35.30;5.50
67050;DHT22;53955;52.442;13.284;2023-05-31T05:56:55;35.60;5.40
67050;DHT22;53955;52.442;13.284;2023-05-31T05:59:22;36.10;4.00
67050;DHT22;53955;52.442;13.284;2023-05-31T06:01:50;36.30;4.20
67050;DHT22;53955;52.442;13.284;2023-05-31T06:04:16;36.50;4.60
67050;DHT22;53955;52.442;13.284;2023-05-31T06:06:43;37.20;4.30
67050;DHT22;53955;52.442;13.284;2023-05-31T06:09:10;37.10;3.10
67050;DHT22;53955;52.442;13.284;2023-05-31T06:11:36;37.30;4.00
67050;DHT22;53955;52.442;13.284;2023-05-31T06:14:03;37.40;4.00
67050;DHT22;53955;52.442;13.284;2023-05-31T06:16:29;37.10;4.10
67050;DHT22;53955;52.442;13.284;2023-05-31T06:18:57;36.90;4.10
67050;DHT22;53955;52.442;13.284;2023-05-31T06:21:24;35.80;4.30
67050;DHT22;53955;52.442;13.284;2023-05-31T06:23:50;34.90;5.10
67050;DHT22;53955;52.442;13.284;2023-05-31T06:26:17;33.80;5.30
67050;DHT22;53955;52.442;13.284;2023-05-31T06:28:44;32.70;6.40
67050;DHT22;53955;52.442;13.284;2023-05-31T06:31:10;31.40;6.90
67050;DHT22;53955;52.442;13.284;2023-05-31T06:33:37;30.60;7.70
67050;DHT22;53955;52.442;13.284;2023-05-31T06:36:05;30.20;9.10
67050;DHT22;53955;52.442;13.284;2023-05-31T06:38:31;30.10;8.90
67050;DHT22;53955;52.442;13.284;2023-05-31T06:40:59;29.70;9.30
67050;DHT22;53955;52.442;13.284;2023-05-31T06:43:25;29.40;9.60
67050;DHT22;53955;52.442;13.284;2023-05-31T06:45:51;28.60;9.60
67050;DHT22;53955;52.442;13.284;2023-05-31T06:48:18;28.30;10.90
67050;DHT22;53955;52.442;13.284;2023-05-31T06:50:45;28.30;10.10
67050;DHT22;53955;52.442;13.284;2023-05-31T06:53:13;28.40;10.50
67050;DHT22;53955;52.442;13.284;2023-05-31T06:55:39;28.40;11.10
67050;DHT22;53955;52.442;13.284;2023-05-31T06:58:06;28.40;10.20
67050;DHT22;53955;52.442;13.284;2023-05-31T07:00:33;28.20;10.90
67050;DHT22;53955;52.442;13.284;2023-05-31T07:02:59;28.30;11.40
67050;DHT22;53955;52.442;13.284;2023-05-31T07:05:27;28.50;10.40
67050;DHT22;53955;52.442;13.284;2023-05-31T07:07:54;28.40;9.20
67050;DHT22;53955;52.442;13.284;2023-05-31T07:10:22;28.40;10.40
67050;DHT22;53955;52.442;13.284;2023-05-31T07:12:49;28.30;10.00
67050;DHT22;53955;52.442;13.284;2023-05-31T07:15:16;28.30;11.10
67050;DHT22;53955;52.442;13.284;2023-05-31T07:17:43;28.40;9.90
67050;DHT22;53955;52.442;13.284;2023-05-31T07:20:10;28.50;10.80
67050;DHT22;53955;52.442;13.284;2023-05-31T07:22:37;28.70;10.40
67050;DHT22;53955;52.442;13.284;2023-05-31T07:25:04;28.80;10.40
67050;DHT22;53955;52.442;13.284;2023-05-31T07:27:32;28.90;9.30
67050;DHT22;53955;52.442;13.284;2023-05-31T07:29:59;29.00;9.60
67050;DHT22;53955;52.442;13.284;2023-05-31T07:32:25;29.00;9.80
67050;DHT22;53955;52.442;13.284;2023-05-31T07:34:52;29.00;9.40
67050;DHT22;53955;52.442;13.284;2023-05-31T07:37:18;29.00;9.90
67050;DHT22;53955;52.442;13.284;2023-05-31T07:39:45;29.10;9.70
67050;DHT22;53955;52.442;13.284;2023-05-31T07:42:12;29.00;9.20
67050;DHT22;53955;52.442;13.284;2023-05-31T07:44:40;29.00;9.20
67050;DHT22;53955;52.442;13.284;2023-05-31T07:47:07;28.90;9.60
67050;DHT22;53955;52.442;13.284;2023-05-31T07:49:34;28.70;10.40
67050;DHT22;53955;52.442;13.284;2023-05-31T07:52:00;28.90;10.60
67050;DHT22;53955;52.442;13.284;2023-05-31T07:54:27;28.90;10.90
67050;DHT22;53955;52.442;13.284;2023-05-31T07:56:53;29.00;10.60
67050;DHT22;53955;52.442;13.284;2023-05-31T07:59:20;29.10;10.60
67050;DHT22;53955;52.442;13.284;2023-05-31T08:01:48;29.00;9.70
67050;DHT22;53955;52.442;13.284;2023-05-31T08:04:15;29.20;9.70
67050;DHT22;53955;52.442;13.284;2023-05-31T08:06:41;29.00;8.30
67050;DHT22;53955;52.442;13.284;2023-05-31T08:09:08;28.90;8.50
67050;DHT22;53955;52.442;13.284;2023-05-31T08:11:35;28.70;8.90
67050;DHT22;53955;52.442;13.284;2023-05-31T08:14:02;28.80;9.80
67050;DHT22;53955;52.442;13.284;2023-05-31T08:16:28;28.80;8.90
67050;DHT22;53955;52.442;13.284;2023-05-31T08:18:56;29.00;7.60
67050;DHT22;53955;52.442;13.284;2023-05-31T08:21:23;29.20;6.60
67050;DHT22;53955;52.442;13.284;2023-05-31T08:23:49;29.30;6.90
67050;DHT22;53955;52.442;13.284;2023-05-31T08:26:16;29.30;8.00
67050;DHT22;53955;52.442;13.284;2023-05-31T08:28:43;29.40;8.70
67050;DHT22;53955;52.442;13.284;2023-05-31T08:31:09;29.50;8.20
67050;DHT22;53955;52.442;13.284;2023-05-31T08:33:36;29.50;7.20
67050;DHT22;53955;52.442;13.284;2023-05-31T08:36:05;29.30;7.30
67050;DHT22;53955;52.442;13.284;2023-05-31T08:38:32;29.10;7.50
67050;DHT22;53955;52.442;13.284;2023-05-31T08:41:01;29.00;7.10
67050;DHT22;53955;52.442;13.284;2023-05-31T08:43:28;29.20;6.30
67050;DHT22;53955;52.442;13.284;2023-05-31T08:45:55;29.30;6.60
67050;DHT22;53955;52.442;13.284;2023-05-31T08:48:24;29.20;6.80
67050;DHT22;53955;52.442;13.284;2023-05-31T08:50:50;29.20;7.30
67050;DHT22;53955;52.442;13.284;2023-05-31T08:53:18;29.20;6.60
67050;DHT22;53955;52.442;13.284;2023-05-31T08:55:45;29.20;7.20
67050;DHT22;53955;52.442;13.284;2023-05-31T08:58:13;29.50;7.10
67050;DHT22;53955;52.442;13.284;2023-05-31T09:00:40;29.30;6.80
67050;DHT22;53955;52.442;13.284;2023-05-31T09:03:09;29.30;6.80
67050;DHT22;53955;52.442;13.284;2023-05-31T09:05:36;29.10;7.00
67050;DHT22;53955;52.442;13.284;2023-05-31T09:08:03;28.90;7.80
67050;DHT22;53955;52.442;13.284;2023-05-31T09:10:31;28.90;8.10
67050;DHT22;53955;52.442;13.284;2023-05-31T09:12:58;28.90;8.00
67050;DHT22;53955;52.442;13.284;2023-05-31T09:15:25;28.80;8.00
67050;DHT22;53955;52.442;13.284;2023-05-31T09:17:53;28.90;6.70
67050;DHT22;53955;52.442;13.284;2023-05-31T09:20:27;28.70;6.70
67050;DHT22;53955;52.442;13.284;2023-05-31T09:22:56;28.70;8.00
67050;DHT22;53955;52.442;13.284;2023-05-31T09:25:22;28.80;7.40
67050;DHT22;53955;52.442;13.284;2023-05-31T09:27:50;28.80;7.30
67050;DHT22;53955;52.442;13.284;2023-05-31T09:30:17;28.70;7.20
67050;DHT22;53955;52.442;13.284;2023-05-31T09:32:51;28.70;6.30
67050;DHT22;53955;52.442;13.284;2023-05-31T09:35:18;28.50;7.80
67050;DHT22;53955;52.442;13.284;2023-05-31T09:37:46;28.50;7.60
67050;DHT22;53955;52.442;13.284;2023-05-31T09:40:13;28.60;7.20
67050;DHT22;53955;52.442;13.284;2023-05-31T09:42:46;28.70;7.70
67050;DHT22;53955;52.442;13.284;2023-05-31T09:45:14;28.70;8.40
67050;DHT22;53955;52.442;13.284;2023-05-31T09:47:41;28.50;7.10
67050;DHT22;53955;52.442;13.284;2023-05-31T09:50:08;28.30;7.40
67050;DHT22;53955;52.442;13.284;2023-05-31T09:52:35;28.40;8.00
67050;DHT22;53955;52.442;13.284;2023-05-31T09:55:07;28.50;8.00
67050;DHT22;53955;52.442;13.284;2023-05-31T09:57:34;28.70;7.60
67050;DHT22;53955;52.442;13.284;2023-05-31T10:00:06;28.70;7.20
67050;DHT22;53955;52.442;13.284;2023-05-31T10:02:39;28.90;7.80
67050;DHT22;53955;52.442;13.284;2023-05-31T10:05:07;28.90;8.20
67050;DHT22;53955;52.442;13.284;2023-05-31T10:07:34;28.90;7.30
67050;DHT22;53955;52.442;13.284;2023-05-31T10:10:00;28.90;7.50
67050;DHT22;53955;52.442;13.284;2023-05-31T10:12:27;28.90;7.70
67050;DHT22;53955;52.442;13.284;2023-05-31T10:14:57;29.10;7.00
67050;DHT22;53955;52.442;13.284;2023-05-31T10:17:26;29.00;7.00
67050;DHT22;53955;52.442;13.284;2023-05-31T10:19:56;29.00;6.60
67050;DHT22;53955;52.442;13.284;2023-05-31T10:22:25;29.10;7.20
67050;DHT22;53955;52.442;13.284;2023-05-31T10:24:55;29.20;7.50
67050;DHT22;53955;52.442;13.284;2023-05-31T10:27:28;29.20;6.90
67050;DHT22;53955;52.442;13.284;2023-05-31T10:29:56;29.10;6.10
67050;DHT22;53955;52.442;13.284;2023-05-31T10:32:29;29.10;6.00
67050;DHT22;53955;52.442;13.284;2023-05-31T10:34:59;29.00;6.80
67050;DHT22;53955;52.442;13.284;2023-05-31T10:37:26;29.10;7.10
67050;DHT22;53955;52.442;13.284;2023-05-31T10:39:55;29.20;5.90
67050;DHT22;53955;52.442;13.284;2023-05-31T10:42:22;29.10;5.30
67050;DHT22;53955;52.442;13.284;2023-05-31T10:44:53;28.90;6.00
67050;DHT22;53955;52.442;13.284;2023-05-31T10:47:26;28.70;7.10
67050;DHT22;53955;52.442;13.284;2023-05-31T10:49:54;28.80;6.60
67050;DHT22;53955;52.442;13.284;2023-05-31T10:52:22;28.80;6.10
67050;DHT22;53955;52.442;13.284;2023-05-31T10:54:49;28.80;5.60
67050;DHT22;53955;52.442;13.284;2023-05-31T10:57:15;28.80;5.90
67050;DHT22;53955;52.442;13.284;2023-05-31T10:59:42;28.70;5.90
67050;DHT22;53955;52.442;13.284;2023-05-31T11:02:10;28.60;4.70
67050;DHT22;53955;52.442;13.284;2023-05-31T11:04:37;28.40;4.30
67050;DHT22;53955;52.442;13.284;2023-05-31T11:07:11;28.30;5.20
67050;DHT22;53955;52.442;13.284;2023-05-31T11:09:39;28.50;6.20
67050;DHT22;53955;52.442;13.284;2023-05-31T11:12:06;28.80;6.40
67050;DHT22;53955;52.442;13.284;2023-05-31T11:14:32;29.00;4.90
67050;DHT22;53955;52.442;13.284;2023-05-31T11:17:14;29.20;5.10
67050;DHT22;53955;52.442;13.284;2023-05-31T11:19:41;29.20;4.30
67050;DHT22;53955;52.442;13.284;2023-05-31T11:22:09;29.10;4.40
67050;DHT22;53955;52.442;13.284;2023-05-31T11:24:36;28.80;5.30
67050;DHT22;53955;52.442;13.284;2023-05-31T11:27:05;28.80;4.20
67050;DHT22;53955;52.442;13.284;2023-05-31T11:32:17;28.40;4.70
67050;DHT22;53955;52.442;13.284;2023-05-31T11:34:50;28.00;5.40
67050;DHT22;53955;52.442;13.284;2023-05-31T11:37:19;28.00;6.60
67050;DHT22;53955;52.442;13.284;2023-05-31T11:39:46;28.30;5.70
67050;DHT22;53955;52.442;13.284;2023-05-31T11:42:17;28.40;6.60
67050;DHT22;53955;52.442;13.284;2023-05-31T11:44:44;28.50;5.30
67050;DHT22;53955;52.442;13.284;2023-05-31T11:47:16;28.40;4.50
67050;DHT22;53955;52.442;13.284;2023-05-31T11:49:43;28.40;5.00
67050;DHT22;53955;52.442;13.284;2023-05-31T11:52:14;28.50;4.60
67050;DHT22;53955;52.442;13.284;2023-05-31T11:54:44;28.50;3.90
67050;DHT22;53955;52.442;13.284;2023-05-31T11:57:11;28.70;4.60
67050;DHT22;53955;52.442;13.284;2023-05-31T11:59:39;28.70;5.00
67050;DHT22;53955;52.442;13.284;2023-05-31T12:02:08;28.70;5.00
67050;DHT22;53955;52.442;13.284;2023-05-31T12:04:37;28.70;4.30
67050;DHT22;53955;52.442;13.284;2023-05-31T12:07:05;28.60;5.50
67050;DHT22;53955;52.442;13.284;2023-05-31T12:09:33;28.70;5.10
67050;DHT22;53955;52.442;13.284;2023-05-31T12:11:59;28.60;5.30
67050;DHT22;53955;52.442;13.284;2023-05-31T12:14:29;28.40;5.40
67050;DHT22;53955;52.442;13.284;2023-05-31T12:17:00;28.30;3.90
67050;DHT22;53955;52.442;13.284;2023-05-31T12:19:27;28.30;4.80
67050;DHT22;53955;52.442;13.284;2023-05-31T12:21:54;28.10;4.30
67050;DHT22;53955;52.442;13.284;2023-05-31T12:24:20;28.00;3.70
67050;DHT22;53955;52.442;13.284;2023-05-31T12:26:47;27.90;4.20
67050;DHT22;53955;52.442;13.284;2023-05-31T12:29:15;28.00;4.30
67050;DHT22;53955;52.442;13.284;2023-05-31T12:31:42;28.00;4.60
67050;DHT22;53955;52.442;13.284;2023-05-31T12:34:11;27.90;4.50
67050;DHT22;53955;52.442;13.284;2023-05-31T12:36:42;28.00;4.50
67050;DHT22;53955;52.442;13.284;2023-05-31T12:39:11;28.10;2.40
67050;DHT22;53955;52.442;13.284;2023-05-31T12:41:41;28.10;3.40
67050;DHT22;53955;52.442;13.284;2023-05-31T12:44:07;28.20;5.30
67050;DHT22;53955;52.442;13.284;2023-05-31T12:46:38;28.20;2.20
67050;DHT22;53955;52.442;13.284;2023-05-31T12:49:19;28.20;3.50
67050;DHT22;53955;52.442;13.284;2023-05-31T12:51:46;28.20;4.00
67050;DHT22;53955;52.442;13.284;2023-05-31T12:54:13;28.40;3.70
67050;DHT22;53955;52.442;13.284;2023-05-31T12:56:40;28.40;3.50
67050;DHT22;53955;52.442;13.284;2023-05-31T12:59:06;28.40;3.60
67050;DHT22;53955;52.442;13.284;2023-05-31T13:01:34;28.50;2.90
67050;DHT22;53955;52.442;13.284;2023-05-31T13:04:01;28.60;3.20
67050;DHT22;53955;52.442;13.284;2023-05-31T13:06:29;28.60;3.70
67050;DHT22;53955;52.442;13.284;2023-05-31T13:08:55;28.60;4.10
67050;DHT22;53955;52.442;13.284;2023-05-31T13:11:22;28.70;3.30
67050;DHT22;53955;52.442;13.284;2023-05-31T13:13:48;28.80;4.40
67050;DHT22;53955;52.442;13.284;2023-05-31T13:16:15;28.70;4.60
67050;DHT22;53955;52.442;13.284;2023-05-31T13:18:42;28.80;2.90
67050;DHT22;53955;52.442;13.284;2023-05-31T13:21:09;28.80;1.50
67050;DHT22;53955;52.442;13.284;2023-05-31T13:23:37;28.80;1.70
67050;DHT22;53955;52.442;13.284;2023-05-31T13:26:04;28.80;2.10
67050;DHT22;53955;52.442;13.284;2023-05-31T13:28:30;28.80;2.50
67050;DHT22;53955;52.442;13.284;2023-05-31T13:30:57;28.70;0.60
67050;DHT22;53955;52.442;13.284;2023-05-31T13:33:23;28.40;0.10
67050;DHT22;53955;52.442;13.284;2023-05-31T13:35:52;28.30;1.90
67050;DHT22;53955;52.442;13.284;2023-05-31T13:38:21;28.40;1.20
67050;DHT22;53955;52.442;13.284;2023-05-31T13:40:49;28.20;0.70
67050;DHT22;53955;52.442;13.284;2023-05-31T13:43:17;28.10;0.10
67050;DHT22;53955;52.442;13.284;2023-05-31T13:45:43;28.20;2.80
67050;DHT22;53955;52.442;13.284;2023-05-31T13:48:10;28.10;2.70
67050;DHT22;53955;52.442;13.284;2023-05-31T13:50:38;28.20;2.70
67050;DHT22;53955;52.442;13.284;2023-05-31T13:53:05;28.30;4.20
67050;DHT22;53955;52.442;13.284;2023-05-31T13:55:32;28.40;3.20
67050;DHT22;53955;52.442;13.284;2023-05-31T13:58:00;28.40;3.90
67050;DHT22;53955;52.442;13.284;2023-05-31T14:00:27;28.50;3.40
67050;DHT22;53955;52.442;13.284;2023-05-31T14:02:54;28.50;4.20
67050;DHT22;53955;52.442;13.284;2023-05-31T14:05:21;28.80;3.10
67050;DHT22;53955;52.442;13.284;2023-05-31T14:07:47;28.70;3.10
67050;DHT22;53955;52.442;13.284;2023-05-31T14:10:14;28.90;3.20
67050;DHT22;53955;52.442;13.284;2023-05-31T14:12:41;28.90;2.20
67050;DHT22;53955;52.442;13.284;2023-05-31T14:15:10;28.90;2.40
67050;DHT22;53955;52.442;13.284;2023-05-31T14:17:37;28.90;3.30
67050;DHT22;53955;52.442;13.284;2023-05-31T14:20:04;28.90;4.00
67050;DHT22;53955;52.442;13.284;2023-05-31T14:22:32;29.00;2.80
67050;DHT22;53955;52.442;13.284;2023-05-31T14:24:59;29.00;1.70
67050;DHT22;53955;52.442;13.284;2023-05-31T14:27:25;29.00;2.10
67050;DHT22;53955;52.442;13.284;2023-05-31T14:29:52;28.80;2.80
67050;DHT22;53955;52.442;13.284;2023-05-31T14:32:20;28.80;3.20
67050;DHT22;53955;52.442;13.284;2023-05-31T14:34:46;28.80;4.40
67050;DHT22;53955;52.442;13.284;2023-05-31T14:37:13;28.80;3.70
67050;DHT22;53955;52.442;13.284;2023-05-31T14:39:41;28.80;4.70
67050;DHT22;53955;52.442;13.284;2023-05-31T14:42:09;28.90;3.50
67050;DHT22;53955;52.442;13.284;2023-05-31T14:44:35;28.80;4.30
67050;DHT22;53955;52.442;13.284;2023-05-31T14:47:02;29.00;4.30
67050;DHT22;53955;52.442;13.284;2023-05-31T14:49:31;28.90;3.90
67050;DHT22;53955;52.442;13.284;2023-05-31T14:51:57;28.90;3.80
67050;DHT22;53955;52.442;13.284;2023-05-31T14:54:24;28.90;3.50
67050;DHT22;53955;52.442;13.284;2023-05-31T14:56:51;28.70;0.20
67050;DHT22;53955;52.442;13.284;2023-05-31T14:59:18;28.60;0.20
67050;DHT22;53955;52.442;13.284;2023-05-31T15:01:44;28.60;0.40
67050;DHT22;53955;52.442;13.284;2023-05-31T15:04:12;28.50;1.00
67050;DHT22;53955;52.442;13.284;2023-05-31T15:06:41;28.70;2.20
67050;DHT22;53955;52.442;13.284;2023-05-31T15:09:08;28.80;1.20
67050;DHT22;53955;52.442;13.284;2023-05-31T15:11:35;28.70;0.10
67050;DHT22;53955;52.442;13.284;2023-05-31T15:14:03;28.90;1.60
67050;DHT22;53955;52.442;13.284;2023-05-31T15:16:30;28.90;0.00
67050;DHT22;53955;52.442;13.284;2023-05-31T15:18:56;29.00;0.10
67050;DHT22;53955;52.442;13.284;2023-05-31T15:21:23;28.80;0.20
67050;DHT22;53955;52.442;13.284;2023-05-31T15:23:51;28.90;0.50
67050;DHT22;53955;52.442;13.284;2023-05-31T15:26:18;28.90;0.40
67050;DHT22;53955;52.442;13.284;2023-05-31T15:28:45;29.10;1.10